Pine Top, Kentucky
Current Conditions -  °F | °C
As of 1:55 AM on Thursday 23 Oct 2014 (Local Time) from KPBX Reporting Station
Overcast Overcast  
Wind Chill: 43°   Ceiling: 2200
Heat Index: 45°   Visibility: 10mi
Dew Point: 41°   Wind: 5mph
Humidity: 86%   Direction: 330°NNW
Pressure: 30.2"   Gusts: NA
Location:  37.27°N, 82.87°W
Report Text: KPBX 230555Z AUTO 33004KT 10SM OVC022 07/05 A3020 RMK AO2 T00730051 10081 20073
Loading
Personal Weather Stations






























Interactive Weather Map
Tropical Storm Tracking
New forecast layout! Learn more

10-Day Weather Forecast

Advertisements
Track Severe Weather on mobile